sensor_id;sensor_type;location;lat;lon;timestamp;P1;durP1;ratioP1;P2;durP2;ratioP2
703;SDS011;335;48.694;9.120;2023-04-08T00:01:47;21.43;;;17.60;;
703;SDS011;335;48.694;9.120;2023-04-08T00:04:13;15.90;;;14.20;;
703;SDS011;335;48.694;9.120;2023-04-08T00:06:38;18.60;;;15.63;;
703;SDS011;335;48.694;9.120;2023-04-08T00:09:03;21.67;;;16.63;;
703;SDS011;335;48.694;9.120;2023-04-08T00:11:29;21.47;;;17.03;;
703;SDS011;335;48.694;9.120;2023-04-08T00:13:54;20.60;;;17.70;;
703;SDS011;335;48.694;9.120;2023-04-08T00:16:20;18.63;;;16.70;;
703;SDS011;335;48.694;9.120;2023-04-08T00:18:46;17.80;;;15.57;;
703;SDS011;335;48.694;9.120;2023-04-08T00:21:13;19.00;;;16.10;;
703;SDS011;335;48.694;9.120;2023-04-08T00:23:40;19.03;;;15.30;;
703;SDS011;335;48.694;9.120;2023-04-08T00:26:05;18.33;;;16.03;;
703;SDS011;335;48.694;9.120;2023-04-08T00:28:31;18.00;;;16.10;;
703;SDS011;335;48.694;9.120;2023-04-08T00:30:56;21.80;;;17.80;;
703;SDS011;335;48.694;9.120;2023-04-08T00:33:22;19.67;;;16.30;;
703;SDS011;335;48.694;9.120;2023-04-08T00:35:49;18.37;;;15.93;;
703;SDS011;335;48.694;9.120;2023-04-08T00:38:14;17.67;;;15.00;;
703;SDS011;335;48.694;9.120;2023-04-08T00:40:40;17.63;;;14.97;;
703;SDS011;335;48.694;9.120;2023-04-08T00:43:05;17.13;;;14.23;;
703;SDS011;335;48.694;9.120;2023-04-08T00:45:32;15.43;;;13.60;;
703;SDS011;335;48.694;9.120;2023-04-08T00:47:57;18.20;;;15.63;;
703;SDS011;335;48.694;9.120;2023-04-08T00:50:23;15.30;;;13.80;;
703;SDS011;335;48.694;9.120;2023-04-08T00:52:48;17.40;;;15.10;;
703;SDS011;335;48.694;9.120;2023-04-08T00:55:13;15.47;;;13.77;;
703;SDS011;335;48.694;9.120;2023-04-08T00:57:39;16.23;;;14.27;;
703;SDS011;335;48.694;9.120;2023-04-08T01:00:05;14.80;;;13.00;;
703;SDS011;335;48.694;9.120;2023-04-08T01:05:27;15.43;;;13.40;;
703;SDS011;335;48.694;9.120;2023-04-08T01:07:57;17.33;;;15.13;;
703;SDS011;335;48.694;9.120;2023-04-08T01:10:30;15.30;;;13.77;;
703;SDS011;335;48.694;9.120;2023-04-08T01:12:58;17.60;;;15.70;;
703;SDS011;335;48.694;9.120;2023-04-08T01:15:28;16.50;;;13.93;;
703;SDS011;335;48.694;9.120;2023-04-08T01:17:54;14.70;;;13.10;;
703;SDS011;335;48.694;9.120;2023-04-08T01:20:21;16.27;;;14.67;;
703;SDS011;335;48.694;9.120;2023-04-08T01:25:52;16.40;;;12.40;;
703;SDS011;335;48.694;9.120;2023-04-08T01:28:18;13.83;;;12.43;;
703;SDS011;335;48.694;9.120;2023-04-08T01:30:45;13.77;;;12.20;;
703;SDS011;335;48.694;9.120;2023-04-08T01:33:12;12.43;;;11.20;;
703;SDS011;335;48.694;9.120;2023-04-08T01:35:38;15.33;;;13.20;;
703;SDS011;335;48.694;9.120;2023-04-08T01:38:04;12.90;;;11.50;;
703;SDS011;335;48.694;9.120;2023-04-08T01:40:31;13.27;;;11.93;;
703;SDS011;335;48.694;9.120;2023-04-08T01:42:57;13.60;;;12.20;;
703;SDS011;335;48.694;9.120;2023-04-08T01:45:23;13.10;;;11.80;;
703;SDS011;335;48.694;9.120;2023-04-08T01:47:49;14.63;;;13.00;;
703;SDS011;335;48.694;9.120;2023-04-08T01:50:15;13.67;;;12.10;;
703;SDS011;335;48.694;9.120;2023-04-08T01:52:45;13.53;;;12.13;;
703;SDS011;335;48.694;9.120;2023-04-08T01:55:12;12.77;;;11.47;;
703;SDS011;335;48.694;9.120;2023-04-08T01:57:37;12.53;;;11.33;;
703;SDS011;335;48.694;9.120;2023-04-08T02:00:04;12.20;;;10.87;;
703;SDS011;335;48.694;9.120;2023-04-08T02:02:32;15.70;;;13.60;;
703;SDS011;335;48.694;9.120;2023-04-08T02:04:58;15.00;;;12.97;;
703;SDS011;335;48.694;9.120;2023-04-08T02:07:24;17.27;;;13.23;;
703;SDS011;335;48.694;9.120;2023-04-08T02:09:49;17.37;;;14.70;;
703;SDS011;335;48.694;9.120;2023-04-08T02:12:15;15.77;;;13.77;;
703;SDS011;335;48.694;9.120;2023-04-08T02:14:40;17.30;;;14.33;;
703;SDS011;335;48.694;9.120;2023-04-08T02:17:10;17.00;;;14.87;;
703;SDS011;335;48.694;9.120;2023-04-08T02:22:24;14.73;;;13.17;;
703;SDS011;335;48.694;9.120;2023-04-08T02:24:56;15.43;;;13.73;;
703;SDS011;335;48.694;9.120;2023-04-08T02:27:23;17.30;;;15.50;;
703;SDS011;335;48.694;9.120;2023-04-08T02:29:48;16.13;;;14.43;;
703;SDS011;335;48.694;9.120;2023-04-08T02:32:15;16.13;;;13.90;;
703;SDS011;335;48.694;9.120;2023-04-08T02:34:41;20.23;;;14.43;;
703;SDS011;335;48.694;9.120;2023-04-08T02:37:07;19.10;;;15.13;;
703;SDS011;335;48.694;9.120;2023-04-08T02:39:33;15.43;;;13.83;;
703;SDS011;335;48.694;9.120;2023-04-08T02:41:58;19.40;;;16.07;;
703;SDS011;335;48.694;9.120;2023-04-08T02:44:24;18.33;;;16.43;;
703;SDS011;335;48.694;9.120;2023-04-08T02:46:49;18.60;;;15.47;;
703;SDS011;335;48.694;9.120;2023-04-08T02:49:15;14.90;;;13.30;;
703;SDS011;335;48.694;9.120;2023-04-08T02:51:40;18.70;;;15.37;;
703;SDS011;335;48.694;9.120;2023-04-08T02:54:05;17.53;;;14.87;;
703;SDS011;335;48.694;9.120;2023-04-08T02:56:31;17.43;;;14.97;;
703;SDS011;335;48.694;9.120;2023-04-08T02:58:56;18.83;;;14.73;;
703;SDS011;335;48.694;9.120;2023-04-08T03:01:21;19.13;;;14.87;;
703;SDS011;335;48.694;9.120;2023-04-08T03:03:47;17.53;;;15.17;;
703;SDS011;335;48.694;9.120;2023-04-08T03:06:12;17.53;;;13.77;;
703;SDS011;335;48.694;9.120;2023-04-08T03:08:37;15.60;;;13.50;;
703;SDS011;335;48.694;9.120;2023-04-08T03:11:03;15.57;;;12.73;;
703;SDS011;335;48.694;9.120;2023-04-08T03:13:28;14.53;;;11.87;;
703;SDS011;335;48.694;9.120;2023-04-08T03:15:54;13.90;;;11.93;;
703;SDS011;335;48.694;9.120;2023-04-08T03:18:19;13.63;;;11.17;;
703;SDS011;335;48.694;9.120;2023-04-08T03:20:45;10.67;;;9.50;;
703;SDS011;335;48.694;9.120;2023-04-08T03:23:10;11.13;;;9.80;;
703;SDS011;335;48.694;9.120;2023-04-08T03:25:36;13.80;;;11.00;;
703;SDS011;335;48.694;9.120;2023-04-08T03:28:01;12.63;;;10.80;;
703;SDS011;335;48.694;9.120;2023-04-08T03:30:26;12.33;;;10.10;;
703;SDS011;335;48.694;9.120;2023-04-08T03:32:52;13.90;;;11.03;;
703;SDS011;335;48.694;9.120;2023-04-08T03:35:17;11.20;;;9.40;;
703;SDS011;335;48.694;9.120;2023-04-08T03:37:42;8.57;;;7.57;;
703;SDS011;335;48.694;9.120;2023-04-08T03:40:08;13.27;;;10.93;;
703;SDS011;335;48.694;9.120;2023-04-08T03:42:33;11.57;;;10.03;;
703;SDS011;335;48.694;9.120;2023-04-08T03:44:59;13.57;;;9.60;;
703;SDS011;335;48.694;9.120;2023-04-08T03:47:25;11.33;;;9.80;;
703;SDS011;335;48.694;9.120;2023-04-08T03:49:54;11.63;;;9.73;;
703;SDS011;335;48.694;9.120;2023-04-08T03:52:19;10.33;;;9.33;;
703;SDS011;335;48.694;9.120;2023-04-08T03:54:45;12.30;;;10.43;;
703;SDS011;335;48.694;9.120;2023-04-08T03:57:10;11.70;;;10.50;;
703;SDS011;335;48.694;9.120;2023-04-08T03:59:38;12.47;;;10.43;;
703;SDS011;335;48.694;9.120;2023-04-08T04:02:05;11.43;;;10.20;;
703;SDS011;335;48.694;9.120;2023-04-08T04:04:30;11.30;;;9.90;;
703;SDS011;335;48.694;9.120;2023-04-08T04:06:55;10.10;;;9.00;;
703;SDS011;335;48.694;9.120;2023-04-08T04:09:21;13.13;;;10.40;;
703;SDS011;335;48.694;9.120;2023-04-08T04:11:46;11.00;;;9.57;;
703;SDS011;335;48.694;9.120;2023-04-08T04:14:11;11.77;;;8.90;;
703;SDS011;335;48.694;9.120;2023-04-08T04:16:37;11.43;;;9.93;;
703;SDS011;335;48.694;9.120;2023-04-08T04:19:02;11.50;;;10.30;;
703;SDS011;335;48.694;9.120;2023-04-08T04:21:27;13.00;;;9.80;;
703;SDS011;335;48.694;9.120;2023-04-08T04:23:53;12.87;;;11.13;;
703;SDS011;335;48.694;9.120;2023-04-08T04:26:19;12.90;;;10.83;;
703;SDS011;335;48.694;9.120;2023-04-08T04:28:45;11.47;;;9.73;;
703;SDS011;335;48.694;9.120;2023-04-08T04:31:17;11.67;;;10.20;;
703;SDS011;335;48.694;9.120;2023-04-08T04:33:43;13.20;;;9.50;;
703;SDS011;335;48.694;9.120;2023-04-08T04:36:09;10.87;;;9.77;;
703;SDS011;335;48.694;9.120;2023-04-08T04:38:34;10.50;;;9.40;;
703;SDS011;335;48.694;9.120;2023-04-08T04:41:00;9.63;;;8.73;;
703;SDS011;335;48.694;9.120;2023-04-08T04:43:26;10.20;;;9.20;;
703;SDS011;335;48.694;9.120;2023-04-08T04:45:51;8.97;;;8.17;;
703;SDS011;335;48.694;9.120;2023-04-08T04:48:16;10.30;;;8.90;;
703;SDS011;335;48.694;9.120;2023-04-08T04:50:42;9.23;;;8.33;;
703;SDS011;335;48.694;9.120;2023-04-08T04:53:07;10.10;;;9.10;;
703;SDS011;335;48.694;9.120;2023-04-08T04:55:32;10.63;;;9.60;;
703;SDS011;335;48.694;9.120;2023-04-08T04:57:58;10.23;;;8.73;;
703;SDS011;335;48.694;9.120;2023-04-08T05:00:23;11.53;;;9.30;;
703;SDS011;335;48.694;9.120;2023-04-08T05:02:48;13.47;;;10.77;;
703;SDS011;335;48.694;9.120;2023-04-08T05:05:14;11.00;;;9.90;;
703;SDS011;335;48.694;9.120;2023-04-08T05:07:39;11.80;;;10.00;;
703;SDS011;335;48.694;9.120;2023-04-08T05:10:05;13.60;;;11.10;;
703;SDS011;335;48.694;9.120;2023-04-08T05:12:30;11.80;;;10.50;;
703;SDS011;335;48.694;9.120;2023-04-08T05:14:59;11.83;;;10.47;;
703;SDS011;335;48.694;9.120;2023-04-08T05:17:24;11.53;;;9.97;;
703;SDS011;335;48.694;9.120;2023-04-08T05:19:50;11.00;;;9.90;;
703;SDS011;335;48.694;9.120;2023-04-08T05:22:17;12.30;;;11.00;;
703;SDS011;335;48.694;9.120;2023-04-08T05:24:42;12.20;;;11.00;;
703;SDS011;335;48.694;9.120;2023-04-08T05:27:07;12.93;;;10.83;;
703;SDS011;335;48.694;9.120;2023-04-08T05:29:33;14.00;;;11.40;;
703;SDS011;335;48.694;9.120;2023-04-08T05:31:58;12.27;;;10.83;;
703;SDS011;335;48.694;9.120;2023-04-08T05:34:23;16.30;;;12.23;;
703;SDS011;335;48.694;9.120;2023-04-08T05:36:49;14.17;;;12.10;;
703;SDS011;335;48.694;9.120;2023-04-08T05:39:17;14.77;;;12.30;;
703;SDS011;335;48.694;9.120;2023-04-08T05:41:43;13.20;;;11.90;;
703;SDS011;335;48.694;9.120;2023-04-08T05:44:09;13.53;;;12.10;;
703;SDS011;335;48.694;9.120;2023-04-08T05:46:34;17.60;;;14.90;;
703;SDS011;335;48.694;9.120;2023-04-08T05:48:59;15.10;;;12.90;;
703;SDS011;335;48.694;9.120;2023-04-08T05:51:25;15.80;;;12.40;;
703;SDS011;335;48.694;9.120;2023-04-08T05:53:50;16.60;;;13.17;;
703;SDS011;335;48.694;9.120;2023-04-08T05:56:15;14.13;;;12.03;;
703;SDS011;335;48.694;9.120;2023-04-08T05:58:41;16.47;;;13.53;;
703;SDS011;335;48.694;9.120;2023-04-08T06:01:06;14.60;;;12.80;;
703;SDS011;335;48.694;9.120;2023-04-08T06:03:31;15.30;;;13.70;;
703;SDS011;335;48.694;9.120;2023-04-08T06:05:57;14.20;;;12.13;;
703;SDS011;335;48.694;9.120;2023-04-08T06:08:22;19.03;;;12.13;;
703;SDS011;335;48.694;9.120;2023-04-08T06:10:49;14.87;;;13.33;;
703;SDS011;335;48.694;9.120;2023-04-08T06:13:14;14.87;;;13.40;;
703;SDS011;335;48.694;9.120;2023-04-08T06:15:40;13.57;;;12.10;;
703;SDS011;335;48.694;9.120;2023-04-08T06:18:05;13.10;;;11.00;;
703;SDS011;335;48.694;9.120;2023-04-08T06:20:30;13.00;;;11.70;;
703;SDS011;335;48.694;9.120;2023-04-08T06:22:56;12.67;;;11.17;;
703;SDS011;335;48.694;9.120;2023-04-08T06:25:21;12.37;;;11.13;;
703;SDS011;335;48.694;9.120;2023-04-08T06:27:47;13.33;;;12.03;;
703;SDS011;335;48.694;9.120;2023-04-08T06:30:12;14.33;;;12.90;;
703;SDS011;335;48.694;9.120;2023-04-08T06:32:37;13.50;;;12.20;;
703;SDS011;335;48.694;9.120;2023-04-08T06:35:03;15.00;;;13.50;;
703;SDS011;335;48.694;9.120;2023-04-08T06:37:28;14.40;;;13.10;;
703;SDS011;335;48.694;9.120;2023-04-08T06:39:54;14.63;;;12.97;;
703;SDS011;335;48.694;9.120;2023-04-08T06:42:19;15.67;;;13.63;;
703;SDS011;335;48.694;9.120;2023-04-08T06:44:44;12.33;;;11.13;;
703;SDS011;335;48.694;9.120;2023-04-08T06:47:10;13.73;;;12.43;;
703;SDS011;335;48.694;9.120;2023-04-08T06:49:35;14.07;;;12.67;;
703;SDS011;335;48.694;9.120;2023-04-08T06:52:01;14.53;;;13.03;;
703;SDS011;335;48.694;9.120;2023-04-08T06:54:26;13.70;;;12.37;;
703;SDS011;335;48.694;9.120;2023-04-08T06:56:52;12.63;;;11.40;;
703;SDS011;335;48.694;9.120;2023-04-08T06:59:17;13.60;;;12.40;;
703;SDS011;335;48.694;9.120;2023-04-08T07:01:42;12.70;;;11.50;;
703;SDS011;335;48.694;9.120;2023-04-08T07:04:07;11.40;;;10.30;;
703;SDS011;335;48.694;9.120;2023-04-08T07:06:33;12.53;;;10.97;;
703;SDS011;335;48.694;9.120;2023-04-08T07:08:58;12.80;;;11.60;;
703;SDS011;335;48.694;9.120;2023-04-08T07:11:23;10.40;;;9.50;;
703;SDS011;335;48.694;9.120;2023-04-08T07:13:49;10.47;;;9.60;;
703;SDS011;335;48.694;9.120;2023-04-08T07:16:16;8.30;;;7.60;;
703;SDS011;335;48.694;9.120;2023-04-08T07:18:41;8.30;;;7.27;;
703;SDS011;335;48.694;9.120;2023-04-08T07:21:07;8.17;;;7.47;;
703;SDS011;335;48.694;9.120;2023-04-08T07:23:33;9.27;;;8.47;;
703;SDS011;335;48.694;9.120;2023-04-08T07:26:02;8.40;;;7.67;;
703;SDS011;335;48.694;9.120;2023-04-08T07:28:28;8.23;;;7.57;;
703;SDS011;335;48.694;9.120;2023-04-08T07:30:54;9.40;;;8.50;;
703;SDS011;335;48.694;9.120;2023-04-08T07:33:19;9.90;;;8.93;;
703;SDS011;335;48.694;9.120;2023-04-08T07:35:45;9.47;;;8.57;;
703;SDS011;335;48.694;9.120;2023-04-08T07:38:10;9.13;;;8.30;;
703;SDS011;335;48.694;9.120;2023-04-08T07:40:37;10.13;;;9.23;;
703;SDS011;335;48.694;9.120;2023-04-08T07:43:02;11.47;;;10.37;;
703;SDS011;335;48.694;9.120;2023-04-08T07:45:28;10.83;;;9.90;;
703;SDS011;335;48.694;9.120;2023-04-08T07:47:53;9.50;;;8.70;;
703;SDS011;335;48.694;9.120;2023-04-08T07:50:18;11.00;;;9.90;;
703;SDS011;335;48.694;9.120;2023-04-08T07:52:44;11.20;;;10.00;;
703;SDS011;335;48.694;9.120;2023-04-08T07:55:09;11.00;;;10.00;;
703;SDS011;335;48.694;9.120;2023-04-08T07:57:34;10.40;;;9.40;;
703;SDS011;335;48.694;9.120;2023-04-08T08:00:00;11.00;;;10.00;;
703;SDS011;335;48.694;9.120;2023-04-08T08:02:25;9.50;;;8.57;;
703;SDS011;335;48.694;9.120;2023-04-08T08:04:50;10.40;;;8.80;;
703;SDS011;335;48.694;9.120;2023-04-08T08:07:16;10.87;;;9.87;;
703;SDS011;335;48.694;9.120;2023-04-08T08:09:41;11.03;;;10.03;;
703;SDS011;335;48.694;9.120;2023-04-08T08:12:06;11.43;;;10.33;;
703;SDS011;335;48.694;9.120;2023-04-08T08:14:32;12.20;;;11.00;;
703;SDS011;335;48.694;9.120;2023-04-08T08:16:57;11.97;;;10.87;;
703;SDS011;335;48.694;9.120;2023-04-08T08:19:22;11.93;;;10.87;;
703;SDS011;335;48.694;9.120;2023-04-08T08:21:48;11.40;;;10.30;;
703;SDS011;335;48.694;9.120;2023-04-08T08:24:13;11.50;;;10.40;;
703;SDS011;335;48.694;9.120;2023-04-08T08:26:38;11.37;;;10.37;;
703;SDS011;335;48.694;9.120;2023-04-08T08:29:04;11.73;;;10.63;;
703;SDS011;335;48.694;9.120;2023-04-08T08:31:32;10.97;;;9.87;;
703;SDS011;335;48.694;9.120;2023-04-08T08:33:58;10.93;;;9.83;;
703;SDS011;335;48.694;9.120;2023-04-08T08:36:23;12.83;;;11.70;;
703;SDS011;335;48.694;9.120;2023-04-08T08:38:48;12.30;;;11.20;;
703;SDS011;335;48.694;9.120;2023-04-08T08:41:15;12.40;;;11.30;;
703;SDS011;335;48.694;9.120;2023-04-08T08:43:41;13.20;;;11.90;;
703;SDS011;335;48.694;9.120;2023-04-08T08:46:09;13.40;;;12.10;;
703;SDS011;335;48.694;9.120;2023-04-08T08:48:36;13.40;;;12.00;;
703;SDS011;335;48.694;9.120;2023-04-08T08:51:06;14.10;;;12.80;;
703;SDS011;335;48.694;9.120;2023-04-08T08:53:33;13.97;;;12.80;;
703;SDS011;335;48.694;9.120;2023-04-08T08:55:58;14.43;;;13.13;;
703;SDS011;335;48.694;9.120;2023-04-08T08:58:27;13.67;;;12.47;;
703;SDS011;335;48.694;9.120;2023-04-08T09:00:52;12.37;;;11.30;;
703;SDS011;335;48.694;9.120;2023-04-08T09:03:22;12.57;;;11.40;;
703;SDS011;335;48.694;9.120;2023-04-08T09:05:49;13.70;;;12.30;;
703;SDS011;335;48.694;9.120;2023-04-08T09:08:25;14.43;;;13.00;;
703;SDS011;335;48.694;9.120;2023-04-08T09:11:13;12.77;;;11.60;;
703;SDS011;335;48.694;9.120;2023-04-08T09:13:40;12.20;;;11.17;;
703;SDS011;335;48.694;9.120;2023-04-08T09:16:07;11.33;;;10.33;;
703;SDS011;335;48.694;9.120;2023-04-08T09:18:36;11.10;;;10.20;;
703;SDS011;335;48.694;9.120;2023-04-08T09:21:03;12.43;;;11.30;;
703;SDS011;335;48.694;9.120;2023-04-08T09:23:45;12.67;;;11.47;;
703;SDS011;335;48.694;9.120;2023-04-08T09:26:15;13.20;;;11.97;;
703;SDS011;335;48.694;9.120;2023-04-08T09:28:42;11.57;;;10.67;;
703;SDS011;335;48.694;9.120;2023-04-08T09:31:30;12.80;;;11.70;;
703;SDS011;335;48.694;9.120;2023-04-08T09:34:08;12.03;;;10.93;;
703;SDS011;335;48.694;9.120;2023-04-08T09:36:35;12.90;;;11.80;;
703;SDS011;335;48.694;9.120;2023-04-08T09:39:01;11.00;;;10.10;;
703;SDS011;335;48.694;9.120;2023-04-08T09:41:26;12.60;;;11.50;;
703;SDS011;335;48.694;9.120;2023-04-08T09:43:53;12.40;;;11.30;;
703;SDS011;335;48.694;9.120;2023-04-08T09:46:26;12.57;;;11.40;;
703;SDS011;335;48.694;9.120;2023-04-08T09:49:00;13.13;;;11.83;;
703;SDS011;335;48.694;9.120;2023-04-08T09:51:40;12.67;;;11.50;;
703;SDS011;335;48.694;9.120;2023-04-08T09:54:13;13.70;;;12.60;;
703;SDS011;335;48.694;9.120;2023-04-08T09:56:43;13.27;;;11.97;;
703;SDS011;335;48.694;9.120;2023-04-08T09:59:13;13.17;;;12.10;;
703;SDS011;335;48.694;9.120;2023-04-08T10:01:45;16.10;;;14.70;;
703;SDS011;335;48.694;9.120;2023-04-08T10:04:15;12.30;;;11.30;;
703;SDS011;335;48.694;9.120;2023-04-08T10:06:43;11.47;;;10.47;;
703;SDS011;335;48.694;9.120;2023-04-08T10:09:08;12.00;;;11.00;;
703;SDS011;335;48.694;9.120;2023-04-08T10:11:34;12.67;;;11.67;;
703;SDS011;335;48.694;9.120;2023-04-08T10:14:00;11.63;;;10.70;;
703;SDS011;335;48.694;9.120;2023-04-08T10:16:26;12.10;;;11.10;;
703;SDS011;335;48.694;9.120;2023-04-08T10:18:52;12.80;;;11.63;;
703;SDS011;335;48.694;9.120;2023-04-08T10:21:33;11.70;;;10.90;;
703;SDS011;335;48.694;9.120;2023-04-08T10:24:14;11.67;;;10.63;;
703;SDS011;335;48.694;9.120;2023-04-08T10:26:43;11.10;;;10.30;;
703;SDS011;335;48.694;9.120;2023-04-08T10:31:47;11.70;;;10.80;;
703;SDS011;335;48.694;9.120;2023-04-08T10:34:20;12.00;;;11.00;;
703;SDS011;335;48.694;9.120;2023-04-08T10:36:50;12.20;;;11.30;;
703;SDS011;335;48.694;9.120;2023-04-08T10:39:17;12.13;;;11.17;;
703;SDS011;335;48.694;9.120;2023-04-08T10:41:46;12.00;;;10.90;;
703;SDS011;335;48.694;9.120;2023-04-08T10:44:16;12.50;;;11.50;;
703;SDS011;335;48.694;9.120;2023-04-08T10:46:45;12.10;;;11.03;;
703;SDS011;335;48.694;9.120;2023-04-08T10:49:12;13.73;;;12.53;;
703;SDS011;335;48.694;9.120;2023-04-08T10:51:38;11.93;;;11.00;;
703;SDS011;335;48.694;9.120;2023-04-08T10:54:04;12.27;;;11.17;;
703;SDS011;335;48.694;9.120;2023-04-08T10:56:31;13.23;;;12.03;;
703;SDS011;335;48.694;9.120;2023-04-08T10:58:57;12.80;;;11.70;;
703;SDS011;335;48.694;9.120;2023-04-08T11:01:23;12.93;;;11.83;;
703;SDS011;335;48.694;9.120;2023-04-08T11:03:48;13.13;;;12.03;;
703;SDS011;335;48.694;9.120;2023-04-08T11:06:14;13.73;;;12.30;;
703;SDS011;335;48.694;9.120;2023-04-08T11:08:40;14.70;;;13.40;;
703;SDS011;335;48.694;9.120;2023-04-08T11:11:05;13.43;;;12.23;;
703;SDS011;335;48.694;9.120;2023-04-08T11:13:38;12.10;;;11.10;;
703;SDS011;335;48.694;9.120;2023-04-08T11:16:07;14.10;;;12.80;;
703;SDS011;335;48.694;9.120;2023-04-08T11:18:39;14.50;;;13.20;;
703;SDS011;335;48.694;9.120;2023-04-08T11:21:08;14.87;;;13.57;;
703;SDS011;335;48.694;9.120;2023-04-08T11:23:34;14.70;;;13.30;;
703;SDS011;335;48.694;9.120;2023-04-08T11:26:00;14.60;;;13.40;;
703;SDS011;335;48.694;9.120;2023-04-08T11:28:25;15.40;;;14.10;;
703;SDS011;335;48.694;9.120;2023-04-08T11:30:51;14.63;;;13.33;;
703;SDS011;335;48.694;9.120;2023-04-08T11:33:17;13.30;;;12.20;;
703;SDS011;335;48.694;9.120;2023-04-08T11:35:43;13.73;;;12.53;;
703;SDS011;335;48.694;9.120;2023-04-08T11:38:09;13.00;;;11.90;;
703;SDS011;335;48.694;9.120;2023-04-08T11:40:35;13.73;;;12.40;;
703;SDS011;335;48.694;9.120;2023-04-08T11:43:07;13.63;;;12.50;;
703;SDS011;335;48.694;9.120;2023-04-08T11:45:37;15.47;;;13.30;;
703;SDS011;335;48.694;9.120;2023-04-08T11:48:08;13.83;;;12.53;;
703;SDS011;335;48.694;9.120;2023-04-08T11:50:38;14.23;;;12.93;;
703;SDS011;335;48.694;9.120;2023-04-08T11:53:03;13.53;;;12.40;;
703;SDS011;335;48.694;9.120;2023-04-08T11:55:32;12.60;;;11.50;;
703;SDS011;335;48.694;9.120;2023-04-08T11:58:01;13.70;;;12.50;;
703;SDS011;335;48.694;9.120;2023-04-08T12:00:28;14.40;;;13.20;;
703;SDS011;335;48.694;9.120;2023-04-08T12:02:53;14.63;;;13.33;;
703;SDS011;335;48.694;9.120;2023-04-08T12:05:19;13.57;;;12.20;;
703;SDS011;335;48.694;9.120;2023-04-08T12:07:45;13.70;;;12.50;;
703;SDS011;335;48.694;9.120;2023-04-08T12:10:11;12.20;;;11.10;;
703;SDS011;335;48.694;9.120;2023-04-08T12:12:37;14.37;;;13.07;;
703;SDS011;335;48.694;9.120;2023-04-08T12:15:03;14.07;;;12.97;;
703;SDS011;335;48.694;9.120;2023-04-08T12:17:29;13.63;;;12.60;;
703;SDS011;335;48.694;9.120;2023-04-08T12:19:54;14.30;;;13.00;;
703;SDS011;335;48.694;9.120;2023-04-08T12:22:20;14.13;;;12.93;;
703;SDS011;335;48.694;9.120;2023-04-08T12:24:45;14.60;;;13.30;;
703;SDS011;335;48.694;9.120;2023-04-08T12:27:11;13.50;;;12.40;;
703;SDS011;335;48.694;9.120;2023-04-08T12:29:36;14.13;;;12.93;;
703;SDS011;335;48.694;9.120;2023-04-08T12:32:02;14.50;;;13.30;;
703;SDS011;335;48.694;9.120;2023-04-08T12:34:28;13.43;;;12.40;;
703;SDS011;335;48.694;9.120;2023-04-08T12:36:53;14.33;;;13.13;;
703;SDS011;335;48.694;9.120;2023-04-08T12:39:19;13.40;;;12.40;;
703;SDS011;335;48.694;9.120;2023-04-08T12:41:46;14.30;;;13.00;;
703;SDS011;335;48.694;9.120;2023-04-08T12:44:11;14.53;;;13.30;;
703;SDS011;335;48.694;9.120;2023-04-08T12:46:36;15.77;;;14.27;;
703;SDS011;335;48.694;9.120;2023-04-08T12:49:02;14.80;;;13.50;;
703;SDS011;335;48.694;9.120;2023-04-08T12:51:27;14.80;;;13.60;;
703;SDS011;335;48.694;9.120;2023-04-08T12:53:53;15.27;;;13.83;;
703;SDS011;335;48.694;9.120;2023-04-08T12:56:18;16.50;;;15.10;;
703;SDS011;335;48.694;9.120;2023-04-08T12:58:45;14.03;;;12.93;;
703;SDS011;335;48.694;9.120;2023-04-08T13:01:10;15.57;;;14.27;;
703;SDS011;335;48.694;9.120;2023-04-08T13:03:36;15.77;;;14.30;;
703;SDS011;335;48.694;9.120;2023-04-08T13:06:01;16.00;;;14.33;;
703;SDS011;335;48.694;9.120;2023-04-08T13:08:27;14.53;;;13.13;;
703;SDS011;335;48.694;9.120;2023-04-08T13:10:53;13.90;;;12.80;;
703;SDS011;335;48.694;9.120;2023-04-08T13:13:21;14.80;;;13.40;;
703;SDS011;335;48.694;9.120;2023-04-08T13:15:46;13.83;;;12.63;;
703;SDS011;335;48.694;9.120;2023-04-08T13:18:12;14.23;;;13.03;;
703;SDS011;335;48.694;9.120;2023-04-08T13:20:37;16.73;;;15.03;;
703;SDS011;335;48.694;9.120;2023-04-08T13:23:02;15.57;;;14.17;;
703;SDS011;335;48.694;9.120;2023-04-08T13:25:28;15.07;;;13.67;;
703;SDS011;335;48.694;9.120;2023-04-08T13:27:53;14.60;;;13.40;;
703;SDS011;335;48.694;9.120;2023-04-08T13:30:19;15.77;;;14.40;;
703;SDS011;335;48.694;9.120;2023-04-08T13:32:44;14.57;;;13.27;;
703;SDS011;335;48.694;9.120;2023-04-08T13:35:10;14.40;;;13.10;;
703;SDS011;335;48.694;9.120;2023-04-08T13:37:35;14.53;;;13.33;;
703;SDS011;335;48.694;9.120;2023-04-08T13:40:00;15.60;;;14.30;;
703;SDS011;335;48.694;9.120;2023-04-08T13:42:26;14.07;;;12.87;;
703;SDS011;335;48.694;9.120;2023-04-08T13:44:51;14.43;;;13.33;;
703;SDS011;335;48.694;9.120;2023-04-08T13:47:17;13.87;;;12.67;;
703;SDS011;335;48.694;9.120;2023-04-08T13:49:42;14.80;;;13.60;;
703;SDS011;335;48.694;9.120;2023-04-08T13:52:07;14.27;;;13.10;;
703;SDS011;335;48.694;9.120;2023-04-08T13:54:33;12.47;;;11.17;;
703;SDS011;335;48.694;9.120;2023-04-08T13:56:58;14.03;;;12.67;;
703;SDS011;335;48.694;9.120;2023-04-08T13:59:25;13.50;;;12.27;;
703;SDS011;335;48.694;9.120;2023-04-08T14:01:50;12.80;;;11.80;;
703;SDS011;335;48.694;9.120;2023-04-08T14:04:18;14.03;;;12.83;;
703;SDS011;335;48.694;9.120;2023-04-08T14:06:44;12.63;;;11.63;;
703;SDS011;335;48.694;9.120;2023-04-08T14:09:10;13.20;;;12.00;;
703;SDS011;335;48.694;9.120;2023-04-08T14:11:35;12.10;;;11.00;;
703;SDS011;335;48.694;9.120;2023-04-08T14:14:00;12.27;;;11.20;;
703;SDS011;335;48.694;9.120;2023-04-08T14:16:26;13.97;;;12.80;;
703;SDS011;335;48.694;9.120;2023-04-08T14:18:51;12.30;;;11.30;;
703;SDS011;335;48.694;9.120;2023-04-08T14:21:17;11.83;;;10.93;;
703;SDS011;335;48.694;9.120;2023-04-08T14:23:42;12.23;;;11.23;;
703;SDS011;335;48.694;9.120;2023-04-08T14:26:08;13.07;;;11.87;;
703;SDS011;335;48.694;9.120;2023-04-08T14:28:33;13.37;;;12.17;;
703;SDS011;335;48.694;9.120;2023-04-08T14:30:58;12.83;;;11.73;;
703;SDS011;335;48.694;9.120;2023-04-08T14:33:24;13.50;;;12.30;;
703;SDS011;335;48.694;9.120;2023-04-08T14:35:51;13.77;;;12.70;;
703;SDS011;335;48.694;9.120;2023-04-08T14:38:16;13.00;;;11.93;;
703;SDS011;335;48.694;9.120;2023-04-08T14:40:42;12.57;;;11.57;;
703;SDS011;335;48.694;9.120;2023-04-08T14:43:07;12.93;;;11.90;;
703;SDS011;335;48.694;9.120;2023-04-08T14:45:32;12.30;;;11.30;;
703;SDS011;335;48.694;9.120;2023-04-08T14:47:58;13.93;;;12.73;;
703;SDS011;335;48.694;9.120;2023-04-08T14:50:23;12.67;;;11.67;;
703;SDS011;335;48.694;9.120;2023-04-08T14:52:48;13.33;;;12.23;;
703;SDS011;335;48.694;9.120;2023-04-08T14:55:14;13.10;;;12.10;;
703;SDS011;335;48.694;9.120;2023-04-08T14:57:39;12.80;;;11.80;;
703;SDS011;335;48.694;9.120;2023-04-08T15:00:05;12.23;;;11.23;;
703;SDS011;335;48.694;9.120;2023-04-08T15:02:31;14.00;;;12.90;;
703;SDS011;335;48.694;9.120;2023-04-08T15:04:56;12.83;;;11.83;;
703;SDS011;335;48.694;9.120;2023-04-08T15:07:22;13.37;;;12.37;;
703;SDS011;335;48.694;9.120;2023-04-08T15:09:47;14.07;;;12.87;;
703;SDS011;335;48.694;9.120;2023-04-08T15:12:13;12.97;;;11.90;;
703;SDS011;335;48.694;9.120;2023-04-08T15:14:38;13.23;;;12.03;;
703;SDS011;335;48.694;9.120;2023-04-08T15:17:03;12.70;;;11.70;;
703;SDS011;335;48.694;9.120;2023-04-08T15:19:28;13.83;;;12.30;;
703;SDS011;335;48.694;9.120;2023-04-08T15:21:54;13.53;;;12.33;;
703;SDS011;335;48.694;9.120;2023-04-08T15:24:19;14.00;;;12.80;;